Time;durP1;ratioP1;P1;durP2;ratioP2;P2;SDS_P1;SDS_P2;PMS_P1;PMS_P2;Temp;Humidity;BMP_temperature;BMP_pressure;BME280_temperature;BME280_humidity;BME280_pressure;Samples;Min_cycle;Max_cycle;Signal;HPM_P1;HPM_P2
2021/01/17 00:00:23;;;;;;;35.80;20.67;;;1.50;89.60;;;0.94;83.33;98266.84;5058484;28;20656;-72
2021/01/17 00:02:51;;;;;;;31.33;19.90;;;1.50;89.70;;;0.93;83.03;98262.59;5063863;28;20782;-72
2021/01/17 00:05:22;;;;;;;32.90;20.13;;;1.50;89.80;;;0.92;82.90;98260.94;5071223;28;20681;-72
2021/01/17 00:07:50;;;;;;;36.67;21.00;;;1.50;89.90;;;0.91;82.73;98266.09;5072131;28;20636;-72
2021/01/17 00:10:21;;;;;;;35.90;21.50;;;1.40;89.90;;;0.89;82.96;98252.44;5067362;28;20632;-72
2021/01/17 00:12:52;;;;;;;35.30;21.90;;;1.40;89.90;;;0.90;83.38;98252.41;5071502;28;21029;-72
2021/01/17 00:15:19;;;;;;;40.17;23.67;;;1.50;90.10;;;0.86;83.37;98249.97;5069049;28;21293;-72
2021/01/17 00:17:47;;;;;;;33.13;22.30;;;1.40;90.00;;;0.82;83.01;98238.97;5072581;28;20612;-72
2021/01/17 00:20:17;;;;;;;34.73;20.30;;;1.40;90.10;;;0.88;83.78;98228.53;5069926;28;21194;-72
2021/01/17 00:22:46;;;;;;;34.67;21.63;;;1.40;90.20;;;0.89;83.74;98225.09;5070655;28;20738;-72
2021/01/17 00:25:17;;;;;;;37.10;21.27;;;1.40;90.30;;;0.90;83.85;98216.47;5070255;28;20632;-72
2021/01/17 00:27:44;;;;;;;34.70;21.37;;;1.40;90.40;;;0.90;83.77;98211.34;5060217;28;20670;-72
2021/01/17 00:30:14;;;;;;;35.83;20.50;;;1.40;90.40;;;0.90;84.09;98201.06;5069147;28;20699;-72
2021/01/17 00:32:41;;;;;;;29.20;16.63;;;1.40;90.50;;;0.90;84.64;98200.25;5071444;28;20648;-72
2021/01/17 00:35:10;;;;;;;32.30;17.90;;;1.40;90.70;;;0.92;84.02;98199.34;5055841;28;20616;-72
2021/01/17 00:37:37;;;;;;;29.53;16.73;;;1.50;90.80;;;0.89;84.36;98199.41;5052505;28;20659;-72
2021/01/17 00:40:08;;;;;;;28.33;17.30;;;1.40;90.70;;;0.92;84.66;98190.78;5056029;28;21174;-72
2021/01/17 00:42:35;;;;;;;30.23;18.20;;;1.40;90.90;;;0.87;84.81;98180.63;5057288;28;21013;-72
2021/01/17 00:45:04;;;;;;;31.63;17.70;;;1.40;90.90;;;0.85;84.83;98177.28;5061749;28;20652;-72
2021/01/17 00:47:32;;;;;;;26.87;17.13;;;1.40;91.10;;;0.86;84.96;98173.84;5063894;28;20685;-72
2021/01/17 00:49:59;;;;;;;32.60;17.83;;;1.40;91.10;;;0.87;84.87;98177.25;5057565;28;21278;-72
2021/01/17 00:52:27;;;;;;;32.63;19.03;;;1.40;91.20;;;0.88;84.89;98177.19;5070932;28;20710;-72
2021/01/17 00:54:55;;;;;;;30.97;18.03;;;1.40;91.20;;;0.94;84.99;98177.84;5067571;28;20768;-72
2021/01/17 00:57:27;;;;;;;34.40;18.67;;;1.50;91.30;;;0.94;85.19;98175.28;5069710;28;20685;-72
2021/01/17 00:59:55;;;;;;;32.80;18.03;;;1.50;91.30;;;0.95;84.90;98171.00;5068165;28;20632;-72
2021/01/17 01:02:22;;;;;;;28.87;17.47;;;1.50;91.30;;;0.96;84.52;98172.66;5067654;28;21001;-72
2021/01/17 01:04:50;;;;;;;29.37;18.47;;;1.50;91.20;;;0.96;84.84;98163.25;5067710;28;21060;-72
2021/01/17 01:07:18;;;;;;;29.57;17.27;;;1.50;91.20;;;1.00;84.72;98161.44;5065908;28;20635;-72
2021/01/17 01:09:46;;;;;;;31.23;18.03;;;1.50;91.20;;;0.96;84.63;98162.41;5067728;28;20623;-72
2021/01/17 01:12:14;;;;;;;29.30;18.23;;;1.50;91.00;;;1.00;84.83;98161.44;5070780;28;20635;-72
2021/01/17 01:14:42;;;;;;;31.10;17.70;;;1.50;91.00;;;1.01;84.22;98168.25;5066477;28;20616;-72
2021/01/17 01:17:10;;;;;;;29.50;17.20;;;1.60;91.10;;;1.01;84.44;98163.13;5067905;28;20646;-72
2021/01/17 01:19:38;;;;;;;29.33;17.20;;;1.60;91.10;;;1.08;84.09;98157.78;5066178;28;20640;-72
2021/01/17 01:22:05;;;;;;;27.73;17.33;;;1.60;91.10;;;1.10;83.97;98155.16;5063847;28;21100;-72
2021/01/17 01:24:33;;;;;;;33.10;18.47;;;1.60;90.90;;;1.10;84.00;98145.72;5071246;28;20690;-72
2021/01/17 01:27:01;;;;;;;31.07;18.10;;;1.60;90.90;;;1.12;83.82;98145.66;5060699;28;21238;-72
2021/01/17 01:29:28;;;;;;;31.03;18.77;;;1.60;90.90;;;1.12;84.49;98140.53;5071571;28;20619;-72
2021/01/17 01:31:57;;;;;;;32.63;19.47;;;1.60;91.00;;;1.08;84.28;98144.06;5065682;28;20627;-72
2021/01/17 01:34:24;;;;;;;32.53;17.67;;;1.60;90.90;;;1.13;84.30;98139.66;5069120;28;20979;-72
2021/01/17 01:36:52;;;;;;;31.50;19.10;;;1.70;90.90;;;1.14;84.66;98131.91;5069855;28;20734;-72
2021/01/17 01:39:19;;;;;;;28.50;17.23;;;1.70;91.00;;;1.15;84.22;98133.56;5068309;28;20655;-72
2021/01/17 01:41:47;;;;;;;29.17;17.00;;;1.70;91.00;;;1.17;84.17;98129.22;5067475;28;20734;-72
2021/01/17 01:44:14;;;;;;;29.60;18.33;;;1.70;91.00;;;1.14;84.42;98119.06;5073807;28;20730;-72
2021/01/17 01:46:42;;;;;;;25.63;16.80;;;1.70;90.90;;;1.14;83.95;98119.06;5064920;28;20663;-72
2021/01/17 01:49:13;;;;;;;27.13;16.77;;;1.70;90.90;;;1.13;83.91;98117.38;5071212;28;20639;-72
2021/01/17 01:51:41;;;;;;;32.00;19.03;;;1.70;90.90;;;1.15;84.01;98117.34;5071194;28;20631;-72
2021/01/17 01:54:09;;;;;;;28.97;16.53;;;1.70;90.90;;;1.12;84.08;98113.13;5073086;28;21163;-72
2021/01/17 01:56:37;;;;;;;28.73;17.20;;;1.70;90.80;;;1.16;83.85;98112.16;5071525;28;20619;-72
2021/01/17 01:59:05;;;;;;;25.87;16.20;;;1.70;90.80;;;1.15;84.10;98119.91;5057784;28;20632;-72
2021/01/17 02:01:33;;;;;;;27.40;15.60;;;1.70;90.60;;;1.16;83.50;98113.88;5072193;28;20769;-72
2021/01/17 02:04:01;;;;;;;27.40;16.30;;;1.70;90.60;;;1.15;83.76;98109.63;5074824;28;20734;-72
2021/01/17 02:06:29;;;;;;;24.40;15.40;;;1.70;90.60;;;1.13;83.58;98101.16;5067985;28;21194;-72
2021/01/17 02:09:19;;;;;;;30.47;16.77;;;1.70;90.50;;;1.12;83.74;98097.72;5066938;28;21249;-72
2021/01/17 02:12:14;;;;;;;25.90;17.30;;;1.70;90.50;;;1.12;83.90;98091.75;5074125;28;20968;-72
2021/01/17 02:14:53;;;;;;;23.80;15.30;;;1.70;90.60;;;1.14;83.73;98087.41;5067274;28;20688;-72
2021/01/17 02:17:27;;;;;;;27.00;17.35;;;1.70;90.60;;;1.15;83.96;98086.53;5071072;28;20754;-72
2021/01/17 02:20:12;;;;;;;27.17;16.40;;;1.70;91.00;;;1.21;83.58;98078.63;5067834;28;20306;-72
2021/01/17 02:22:48;;;;;;;29.03;15.93;;;1.70;90.70;;;1.23;83.58;98071.72;5072165;28;20647;-72
2021/01/17 02:25:19;;;;;;;25.37;16.27;;;1.80;90.60;;;1.26;83.73;98069.03;5072893;28;20726;-72
2021/01/17 02:27:56;;;;;;;29.38;19.77;;;1.80;90.60;;;1.36;83.19;98073.84;5070682;28;20773;-72
2021/01/17 02:30:27;;;;;;;25.47;16.80;;;1.90;90.70;;;1.43;83.06;98065.06;5065723;28;20648;-72
2021/01/17 02:32:58;;;;;;;26.13;16.93;;;1.90;90.40;;;1.44;83.27;98062.44;5072368;28;20684;-72
2021/01/17 02:35:29;;;;;;;23.77;15.07;;;2.00;90.30;;;1.46;82.73;98067.50;5072334;28;20638;-72
2021/01/17 02:38:10;;;;;;;26.23;15.93;;;2.00;90.10;;;1.43;82.40;98053.03;5074020;28;20752;-72
2021/01/17 02:41:09;;;;;;;24.53;15.90;;;2.00;90.00;;;1.42;82.52;98059.06;5064939;28;20639;-72
2021/01/17 02:43:36;;;;;;;24.10;15.43;;;2.00;90.00;;;1.43;83.24;98055.59;5066397;28;21074;-72
2021/01/17 02:46:04;;;;;;;25.63;14.70;;;2.00;90.00;;;1.44;83.16;98059.00;5071201;28;20730;-72
2021/01/17 02:48:31;;;;;;;24.07;14.80;;;2.00;89.90;;;1.40;82.90;98058.28;5072928;28;20670;-72
2021/01/17 02:50:59;;;;;;;20.97;14.63;;;2.00;89.60;;;1.39;82.98;98059.16;5069536;28;20727;-72
2021/01/17 02:53:33;;;;;;;26.60;15.43;;;2.00;89.70;;;1.40;82.51;98060.84;5072424;28;20627;-72
2021/01/17 02:56:07;;;;;;;26.80;15.80;;;1.90;89.50;;;1.42;82.53;98048.78;5070355;28;20635;-72
2021/01/17 02:58:35;;;;;;;22.87;14.47;;;2.00;89.80;;;1.44;82.16;98052.16;5073511;28;20671;-72
2021/01/17 03:01:05;;;;;;;22.77;14.53;;;2.00;89.50;;;1.46;82.59;98054.69;5065894;28;20694;-72
2021/01/17 03:03:38;;;;;;;24.93;15.00;;;2.00;89.30;;;1.45;82.76;98048.69;5067091;28;20640;-72
2021/01/17 03:06:08;;;;;;;19.90;13.43;;;2.00;89.20;;;1.45;82.49;98053.81;5064881;28;20734;-72
2021/01/17 03:08:37;;;;;;;25.20;14.40;;;2.00;89.10;;;1.44;82.55;98061.56;5060936;28;20636;-72
2021/01/17 03:11:06;;;;;;;24.87;14.60;;;2.00;89.20;;;1.41;82.13;98062.53;5068539;28;20674;-72
2021/01/17 03:13:37;;;;;;;21.83;14.23;;;2.00;89.00;;;1.39;82.13;98061.72;5072674;28;20658;-72
2021/01/17 03:16:06;;;;;;;22.30;14.73;;;2.00;89.00;;;1.39;82.23;98060.88;5071977;28;21186;-72
2021/01/17 03:18:34;;;;;;;23.93;15.43;;;1.90;89.00;;;1.40;82.42;98062.59;5060527;28;20620;-72
2021/01/17 03:21:02;;;;;;;24.47;14.10;;;2.00;89.30;;;1.39;82.46;98054.94;5070483;28;20720;-72
2021/01/17 03:23:29;;;;;;;23.17;14.47;;;1.90;89.30;;;1.36;82.41;98058.44;5066518;28;20676;-72
2021/01/17 03:25:57;;;;;;;23.40;13.87;;;1.90;89.30;;;1.35;82.30;98053.34;5065303;28;20644;-72
2021/01/17 03:28:25;;;;;;;24.13;14.80;;;1.90;89.40;;;1.35;82.48;98055.91;5066544;28;21253;-72
2021/01/17 03:30:53;;;;;;;23.87;14.47;;;1.90;89.50;;;1.35;83.20;98050.78;5063077;28;21262;-72
2021/01/17 03:33:20;;;;;;;26.37;15.43;;;1.90;89.70;;;1.36;82.58;98047.31;5066259;28;21328;-72
2021/01/17 03:35:48;;;;;;;26.63;14.83;;;1.90;89.80;;;1.34;83.29;98054.22;5065838;28;21057;-72
2021/01/17 03:38:16;;;;;;;24.70;15.53;;;1.90;89.90;;;1.33;82.69;98050.00;5072369;28;20639;-72
2021/01/17 03:40:43;;;;;;;24.23;14.10;;;1.90;90.00;;;1.30;83.55;98045.78;5070337;28;20655;-72
2021/01/17 03:43:11;;;;;;;25.10;14.37;;;1.90;90.00;;;1.27;83.34;98055.31;5065117;28;20678;-72
2021/01/17 03:45:39;;;;;;;24.27;16.07;;;1.90;90.00;;;1.28;83.61;98045.00;5064877;28;20633;-72
2021/01/17 03:48:08;;;;;;;26.93;15.13;;;1.80;90.00;;;1.24;83.70;98050.28;5071144;28;20671;-72
2021/01/17 03:50:35;;;;;;;28.07;15.47;;;1.80;90.10;;;1.25;83.30;98045.09;5065834;28;21056;-72
2021/01/17 03:53:03;;;;;;;25.30;15.30;;;1.80;90.20;;;1.23;83.65;98043.47;5053660;28;21139;-72
2021/01/17 03:55:31;;;;;;;25.53;14.87;;;1.80;90.30;;;1.26;83.85;98040.78;5056704;28;20632;-72
2021/01/17 03:57:58;;;;;;;21.43;13.80;;;1.80;90.30;;;1.28;83.48;98034.72;5068699;28;20993;-72
2021/01/17 04:00:26;;;;;;;24.37;14.70;;;1.80;90.40;;;1.29;83.46;98035.56;5066079;28;20678;-72
2021/01/17 04:02:57;;;;;;;27.67;15.60;;;1.80;90.40;;;1.30;83.87;98029.56;5062771;28;20655;-72
2021/01/17 04:05:25;;;;;;;26.50;16.00;;;1.80;90.40;;;1.30;83.72;98024.41;5071929;28;20603;-72
2021/01/17 04:07:53;;;;;;;24.70;15.70;;;1.80;90.50;;;1.34;83.90;98025.97;5066097;28;20651;-72
2021/01/17 04:10:21;;;;;;;25.57;16.70;;;1.90;90.60;;;1.32;83.82;98025.19;5060454;28;20682;-72
2021/01/17 04:12:49;;;;;;;26.43;15.97;;;1.90;90.50;;;1.30;84.07;98030.38;5052902;28;20638;-72
2021/01/17 04:15:16;;;;;;;27.37;16.47;;;1.90;90.50;;;1.29;83.69;98035.56;5064213;28;20726;-72
2021/01/17 04:17:47;;;;;;;29.57;17.00;;;1.90;90.50;;;1.28;84.25;98032.16;5071294;28;20674;-72
2021/01/17 04:20:16;;;;;;;27.00;16.23;;;1.80;90.50;;;1.24;84.05;98033.16;5069340;28;20635;-72
2021/01/17 04:22:44;;;;;;;27.40;17.10;;;1.80;90.50;;;1.23;83.72;98033.19;5054914;28;20752;-72
2021/01/17 04:25:12;;;;;;;27.10;15.53;;;1.80;90.60;;;1.23;84.44;98041.72;5069040;28;20738;-72
2021/01/17 04:27:39;;;;;;;28.80;17.47;;;1.80;90.60;;;1.28;84.23;98045.00;5056691;28;20726;-72
2021/01/17 04:30:12;;;;;;;24.80;15.60;;;1.80;90.70;;;1.30;83.48;98042.38;5067271;28;21174;-72
2021/01/17 04:32:40;;;;;;;22.60;14.70;;;1.80;90.60;;;1.30;84.01;98052.66;5065272;28;20636;-72
2021/01/17 04:35:13;;;;;;;22.50;14.60;;;1.80;90.50;;;1.29;83.53;98041.53;5070537;28;20673;-72
2021/01/17 04:37:41;;;;;;;24.83;14.63;;;1.80;90.40;;;1.28;83.24;98042.44;5067997;28;20635;-72
2021/01/17 04:40:10;;;;;;;24.33;14.60;;;1.80;90.40;;;1.30;83.94;98043.22;5069940;28;20693;-72
2021/01/17 04:42:40;;;;;;;26.60;14.30;;;1.80;90.40;;;1.33;83.32;98037.97;5064952;28;21237;-72
2021/01/17 04:45:11;;;;;;;25.23;15.10;;;1.90;90.50;;;1.35;83.87;98040.50;5069743;28;21038;-72
2021/01/17 04:47:41;;;;;;;23.60;14.23;;;1.90;90.40;;;1.33;83.23;98044.84;5070490;28;20675;-72
2021/01/17 04:50:10;;;;;;;23.23;14.40;;;1.90;90.40;;;1.32;83.90;98056.00;5068325;28;20688;-72
2021/01/17 04:52:49;;;;;;;22.90;13.83;;;1.90;90.40;;;1.35;83.78;98061.03;5064989;28;21185;-72
2021/01/17 04:55:18;;;;;;;27.60;15.20;;;1.90;90.40;;;1.40;83.08;98060.84;5071544;28;20638;-72
2021/01/17 04:57:52;;;;;;;23.67;14.60;;;1.90;90.30;;;1.39;83.19;98063.47;5067693;28;20648;-72
2021/01/17 05:00:25;;;;;;;25.53;14.70;;;1.90;90.20;;;1.37;83.64;98065.25;5069775;28;21191;-72
2021/01/17 05:03:09;;;;;;;25.60;14.80;;;1.90;90.20;;;1.41;83.28;98065.09;5065392;28;20710;-72
2021/01/17 05:05:47;;;;;;;21.17;13.17;;;2.00;90.30;;;1.46;83.45;98068.34;5064032;28;20625;-72
2021/01/17 05:08:32;;;;;;;26.23;14.47;;;2.00;90.20;;;1.46;82.84;98065.78;5067107;28;20624;-72
2021/01/17 05:11:02;;;;;;;22.50;14.23;;;2.00;90.50;;;1.44;83.37;98075.28;5067192;28;20631;-72
2021/01/17 05:13:38;;;;;;;29.23;14.87;;;2.00;90.10;;;1.41;83.15;98070.25;5065689;28;20651;-72
2021/01/17 05:16:09;;;;;;;25.77;16.40;;;2.00;90.20;;;1.50;83.54;98064.78;5071976;28;20627;-72
2021/01/17 05:18:37;;;;;;;26.57;15.83;;;2.00;90.30;;;1.52;82.78;98067.31;5073845;28;20631;-72
2021/01/17 05:21:05;;;;;;;26.70;15.03;;;2.00;90.00;;;1.55;83.06;98069.78;5071470;28;20761;-72
2021/01/17 05:23:34;;;;;;;25.30;16.63;;;2.00;90.00;;;1.47;83.25;98067.47;5073895;28;20679;-72
2021/01/17 05:26:03;;;;;;;28.27;16.60;;;2.00;90.10;;;1.41;83.28;98062.53;5066081;28;20674;-72
2021/01/17 05:28:33;;;;;;;25.07;15.50;;;2.00;90.20;;;1.40;83.09;98065.97;5070035;28;20758;-72
2021/01/17 05:31:01;;;;;;;26.10;16.53;;;1.90;90.30;;;1.40;83.20;98065.97;5070561;28;20631;-72
2021/01/17 05:33:32;;;;;;;25.50;15.87;;;2.00;90.40;;;1.40;83.81;98070.28;5074892;28;20632;-72
2021/01/17 05:36:01;;;;;;;25.77;15.90;;;2.00;90.40;;;1.42;83.67;98066.75;5068957;28;20627;-72
2021/01/17 05:38:28;;;;;;;23.80;15.33;;;2.00;90.40;;;1.44;83.18;98067.56;5073288;28;20674;-72
2021/01/17 05:40:57;;;;;;;26.37;15.87;;;2.00;90.30;;;1.44;83.22;98080.41;5069811;28;20667;-72
2021/01/17 05:43:24;;;;;;;24.43;15.73;;;2.00;90.10;;;1.47;83.30;98074.31;5074742;28;20770;-72
2021/01/17 05:45:52;;;;;;;27.00;15.70;;;2.00;90.30;;;1.44;83.44;98075.28;5072538;28;20630;-72
2021/01/17 05:48:20;;;;;;;26.70;15.97;;;2.00;90.30;;;1.40;83.79;98071.13;5069721;28;20755;-72
2021/01/17 05:50:47;;;;;;;27.40;16.03;;;2.00;90.30;;;1.44;83.61;98082.97;5066079;28;20697;-72
2021/01/17 05:53:15;;;;;;;25.00;15.50;;;2.00;90.30;;;1.49;83.13;98086.22;5060226;28;21268;-72
2021/01/17 05:55:44;;;;;;;29.60;17.07;;;2.00;90.20;;;1.47;83.05;98082.88;5062154;28;20681;-72
2021/01/17 05:58:26;;;;;;;28.07;16.77;;;2.00;90.20;;;1.49;83.32;98082.81;5067964;28;20636;-72
2021/01/17 06:00:56;;;;;;;24.33;15.47;;;2.10;90.20;;;1.46;83.49;98091.47;5068418;28;20697;-72
2021/01/17 06:03:30;;;;;;;28.30;16.90;;;2.00;90.20;;;1.45;83.09;98088.94;5061511;28;21221;-72
2021/01/17 06:06:00;;;;;;;27.53;15.53;;;2.10;90.30;;;1.44;83.87;98093.25;5074097;28;20739;-72
2021/01/17 06:08:28;;;;;;;27.47;16.70;;;2.00;90.30;;;1.41;83.91;98095.06;5073905;28;20681;-72
2021/01/17 06:11:07;;;;;;;27.53;17.73;;;2.00;90.30;;;1.41;83.92;98089.91;5073901;28;20647;-72
2021/01/17 06:13:39;;;;;;;26.23;15.80;;;2.00;90.50;;;1.41;84.11;98093.34;5067516;28;20600;-72
2021/01/17 06:16:28;;;;;;;30.60;16.93;;;2.00;90.50;;;1.43;83.36;98094.13;5070956;28;20646;-72
2021/01/17 06:18:58;;;;;;;24.20;14.77;;;2.00;90.40;;;1.44;83.90;98097.53;5073810;28;20734;-72
2021/01/17 06:21:27;;;;;;;25.30;16.20;;;2.00;90.40;;;1.42;83.63;98097.56;5069092;28;20628;-72
2021/01/17 06:24:00;;;;;;;27.87;17.87;;;2.00;90.40;;;1.43;83.81;98095.88;5055716;28;20645;-72
2021/01/17 06:26:30;;;;;;;27.43;16.40;;;2.00;90.50;;;1.43;83.71;98094.13;5068279;28;20671;-72
2021/01/17 06:29:00;;;;;;;27.60;17.00;;;2.00;90.50;;;1.42;83.54;98097.56;5059283;28;20672;-72
2021/01/17 06:31:29;;;;;;;26.27;15.60;;;2.00;90.50;;;1.46;83.80;98093.19;5063498;28;21024;-72
2021/01/17 06:34:08;;;;;;;27.30;16.33;;;2.00;90.50;;;1.45;83.36;98094.91;5074182;28;20631;-72
2021/01/17 06:36:37;;;;;;;25.47;17.10;;;2.00;90.50;;;1.45;84.06;98086.38;5068961;28;20685;-72
2021/01/17 06:39:06;;;;;;;26.87;16.33;;;2.00;90.50;;;1.45;83.63;98086.38;5071652;28;20747;-72
2021/01/17 06:41:40;;;;;;;25.57;15.30;;;2.00;90.50;;;1.42;83.95;98091.63;5067787;28;20679;-72
2021/01/17 06:44:11;;;;;;;25.90;15.00;;;2.00;90.50;;;1.41;83.60;98090.78;5072711;28;20654;-72
2021/01/17 06:46:43;;;;;;;26.73;15.70;;;2.00;90.60;;;1.42;84.27;98091.63;5070199;28;20636;-72
2021/01/17 06:49:17;;;;;;;26.40;14.63;;;2.00;90.70;;;1.45;83.98;98094.91;5068633;28;20624;-72
2021/01/17 06:51:46;;;;;;;25.00;14.60;;;2.00;90.70;;;1.48;84.28;98089.69;5071249;28;20709;-72
2021/01/17 06:54:16;;;;;;;24.90;14.30;;;2.00;90.70;;;1.45;83.79;98094.09;5073106;28;20646;-72
2021/01/17 06:56:46;;;;;;;24.57;14.63;;;2.00;90.70;;;1.44;84.09;98084.69;5068894;28;20635;-72
2021/01/17 06:59:30;;;;;;;24.23;14.33;;;2.00;90.70;;;1.47;84.05;98092.28;5068020;28;20721;-72
2021/01/17 07:02:38;;;;;;;23.87;15.10;;;2.00;90.80;;;1.44;84.00;98088.13;5062506;28;20632;-72
2021/01/17 07:05:45;;;;;;;24.43;13.83;;;2.00;90.80;;;1.43;84.22;98090.72;5070355;28;20631;-72
2021/01/17 07:08:52;;;;;;;26.53;15.90;;;2.00;90.80;;;1.44;84.52;98094.97;5062062;28;20670;-72
2021/01/17 07:11:48;;;;;;;22.40;13.23;;;2.00;90.80;;;1.44;84.45;98103.53;5067300;28;20639;-72
2021/01/17 07:14:17;;;;;;;21.63;13.33;;;2.00;90.80;;;1.46;84.25;98103.47;5064707;28;20772;-72
2021/01/17 07:16:51;;;;;;;23.47;14.17;;;2.00;90.90;;;1.49;84.50;98096.50;5065728;28;20680;-72
2021/01/17 07:19:21;;;;;;;24.47;14.17;;;2.00;90.90;;;1.50;84.01;98102.47;5073760;28;20714;-72
2021/01/17 07:21:52;;;;;;;27.93;14.43;;;2.10;90.90;;;1.51;83.79;98104.97;5068678;28;21211;-72
2021/01/17 07:24:21;;;;;;;25.13;14.63;;;2.10;90.90;;;1.55;83.74;98106.56;5072314;28;20759;-72
2021/01/17 07:27:08;;;;;;;24.00;14.63;;;2.10;90.90;;;1.58;84.17;98108.19;5066918;28;21257;-72
2021/01/17 07:29:37;;;;;;;24.47;16.17;;;2.10;90.90;;;1.59;84.01;98104.72;5067802;28;20647;-72
2021/01/17 07:32:39;;;;;;;25.90;15.97;;;2.10;91.00;;;1.62;84.62;98114.91;5059302;28;20675;-72
2021/01/17 07:35:11;;;;;;;23.17;14.37;;;2.10;91.00;;;1.66;84.93;98109.63;5061789;28;20720;-72
2021/01/17 07:37:42;;;;;;;25.30;15.00;;;2.20;91.10;;;1.71;84.36;98107.72;5054124;28;20677;-72
2021/01/17 07:40:12;;;;;;;33.57;18.77;;;2.20;91.10;;;1.75;84.32;98109.31;5070668;28;20631;-72
2021/01/17 07:42:39;;;;;;;45.30;26.53;;;2.30;91.10;;;1.73;84.58;98120.53;5064276;28;21182;-72
2021/01/17 07:45:17;;;;;;;32.90;18.73;;;2.20;91.10;;;1.75;84.73;98118.75;5067087;28;21012;-72
2021/01/17 07:47:46;;;;;;;27.57;16.70;;;2.30;91.20;;;1.76;84.31;98113.56;5062820;28;20619;-72
2021/01/17 07:50:14;;;;;;;26.67;16.70;;;2.30;91.20;;;1.78;84.67;98119.50;5070069;28;20607;-72
2021/01/17 07:52:51;;;;;;;26.13;15.37;;;2.30;91.20;;;1.78;84.47;98129.78;5071185;28;20665;-72
2021/01/17 07:55:21;;;;;;;26.50;15.03;;;2.30;91.10;;;1.82;84.19;98126.22;5070737;28;20647;-72
2021/01/17 07:57:52;;;;;;;25.63;15.77;;;2.40;91.20;;;1.86;84.30;98134.66;5064735;28;20662;-72
2021/01/17 08:00:25;;;;;;;26.60;15.33;;;2.40;91.20;;;1.85;84.10;98133.81;5060099;28;20647;-72
2021/01/17 08:02:53;;;;;;;28.93;16.83;;;2.40;91.20;;;1.87;84.40;98138.00;5057037;28;20644;-72
2021/01/17 08:05:52;;;;;;;30.53;16.77;;;2.40;91.20;;;1.87;84.64;98149.19;5068742;28;20734;-72
2021/01/17 08:08:49;;;;;;;24.80;15.50;;;2.40;91.20;;;1.85;84.64;98154.41;5070173;28;20675;-72
2021/01/17 08:11:41;;;;;;;29.57;17.30;;;2.40;91.10;;;1.83;84.94;98145.88;5062205;28;20623;-72
2021/01/17 08:14:24;;;;;;;30.37;16.50;;;2.40;91.20;;;1.78;84.13;98154.66;5072898;28;20944;-72
2021/01/17 08:17:08;;;;;;;25.87;15.47;;;2.30;91.10;;;1.77;84.96;98155.53;5069952;28;22049;-72
2021/01/17 08:19:39;;;;;;;27.27;17.97;;;2.30;91.20;;;1.86;84.51;98158.63;5062031;28;20631;-72
2021/01/17 08:22:44;;;;;;;28.50;17.90;;;2.40;91.30;;;1.86;84.67;98158.63;5062833;28;20677;-74
2021/01/17 08:25:55;;;;;;;29.47;17.23;;;2.40;91.40;;;1.92;84.77;98156.72;5068250;28;20631;-72
2021/01/17 08:28:39;;;;;;;29.73;16.97;;;2.40;91.30;;;1.95;84.58;98155.75;5063319;28;20671;-72
2021/01/17 08:31:40;;;;;;;29.53;17.83;;;2.50;91.40;;;1.98;84.93;98155.66;5062437;28;20635;-72
2021/01/17 08:34:25;;;;;;;32.30;20.23;;;2.50;91.30;;;2.04;84.37;98160.56;5070624;28;20623;-72
2021/01/17 08:36:55;;;;;;;33.13;20.73;;;2.50;91.30;;;2.10;84.23;98158.63;5069314;28;20681;-72
2021/01/17 08:39:45;;;;;;;35.67;20.50;;;2.60;91.10;;;2.10;84.22;98161.19;5054129;28;20603;-73
2021/01/17 08:42:33;;;;;;;32.50;19.07;;;2.60;91.20;;;2.11;84.05;98168.03;5070184;28;20730;-72
2021/01/17 08:45:02;;;;;;;29.97;20.30;;;2.60;91.20;;;2.15;84.15;98163.63;5070909;28;20705;-72
2021/01/17 08:47:36;;;;;;;35.23;20.57;;;2.60;91.20;;;2.21;84.34;98158.25;5067470;28;20611;-70
2021/01/17 08:50:06;;;;;;;29.93;17.70;;;2.70;91.30;;;2.27;84.07;98165.75;5072030;28;20615;-71
2021/01/17 08:52:37;;;;;;;32.57;19.17;;;2.70;91.20;;;2.33;84.12;98166.41;5061034;28;20628;-71
2021/01/17 08:55:07;;;;;;;27.50;16.60;;;2.80;91.20;;;2.38;84.01;98164.50;5058817;28;20731;-71
2021/01/17 08:57:42;;;;;;;26.50;16.37;;;2.80;91.10;;;2.45;83.74;98171.09;5067753;28;20619;-70
2021/01/17 09:00:12;;;;;;;50.03;33.53;;;2.90;91.00;;;2.46;83.77;98173.63;5069958;28;20626;-72
2021/01/17 09:02:40;;;;;;;31.63;19.97;;;2.90;90.80;;;2.50;83.55;98182.91;5071611;28;20727;-73
2021/01/17 09:05:19;;;;;;;30.80;17.67;;;3.00;90.60;;;2.59;83.10;98180.03;5062602;28;20643;-71
2021/01/17 09:07:47;;;;;;;32.43;18.40;;;3.00;90.70;;;2.67;83.00;98187.47;5069595;28;20635;-71
2021/01/17 09:10:16;;;;;;;30.03;17.80;;;3.10;90.60;;;2.75;82.47;98195.75;5064583;28;20695;-71
2021/01/17 09:12:44;;;;;;;25.73;16.17;;;3.20;90.70;;;2.84;82.71;98193.66;5054505;28;21396;-71
2021/01/17 09:15:21;;;;;;;27.10;16.97;;;3.30;90.30;;;2.97;82.70;98192.34;5060787;28;20678;-71
2021/01/17 09:17:59;;;;;;;27.30;17.03;;;3.30;90.10;;;3.01;81.98;98199.91;5068781;28;20667;-72
2021/01/17 09:20:29;;;;;;;26.20;17.13;;;3.40;89.40;;;3.08;81.92;98205.66;5066476;28;20623;-71
2021/01/17 09:22:58;;;;;;;29.23;17.10;;;3.50;89.40;;;3.11;81.48;98202.97;5069554;28;20748;-71
2021/01/17 09:25:27;;;;;;;28.63;16.07;;;3.50;89.90;;;3.14;81.50;98202.84;5067425;28;20643;-72
2021/01/17 09:27:56;;;;;;;26.80;17.60;;;3.50;89.10;;;3.20;81.61;98208.59;5069692;28;20667;-71
2021/01/17 09:30:25;;;;;;;29.30;17.40;;;3.60;89.00;;;3.12;80.83;98212.38;5056579;28;20625;-69
2021/01/17 09:32:53;;;;;;;28.20;16.13;;;3.50;87.70;;;3.16;81.48;98214.78;5059093;28;21058;-69
2021/01/17 09:35:23;;;;;;;34.00;19.87;;;3.60;88.20;;;3.19;80.99;98222.41;5067561;28;20681;-70
2021/01/17 09:37:58;;;;;;;27.03;15.53;;;3.60;88.20;;;3.27;80.50;98223.78;5067858;28;20638;-70
2021/01/17 09:40:26;;;;;;;23.30;15.13;;;3.60;88.20;;;3.34;80.85;98222.66;5069762;28;20627;-71
2021/01/17 09:42:54;;;;;;;28.27;16.43;;;3.70;88.00;;;3.40;81.39;98229.31;5061294;28;20723;-71
2021/01/17 09:45:21;;;;;;;23.87;14.90;;;3.80;88.10;;;3.46;80.87;98219.63;5056049;28;21179;-70
2021/01/17 09:47:52;;;;;;;27.90;15.63;;;3.80;87.60;;;3.49;80.00;98227.22;5059456;28;20706;-71
2021/01/17 09:50:19;;;;;;;29.40;16.70;;;3.80;86.70;;;3.49;80.05;98232.38;5057578;28;20690;-72
2021/01/17 09:52:47;;;;;;;24.70;15.30;;;3.90;87.00;;;3.53;80.20;98231.34;5064411;28;20628;-70
2021/01/17 09:55:15;;;;;;;27.57;14.77;;;3.90;86.60;;;3.57;79.99;98232.91;5069341;28;20635;-69
2021/01/17 09:57:43;;;;;;;31.33;15.57;;;4.00;87.10;;;3.52;79.85;98240.00;5066690;28;21265;-70
2021/01/17 10:00:18;;;;;;;25.80;15.53;;;3.90;86.20;;;3.54;80.24;98233.03;5071116;28;20635;-70
2021/01/17 10:02:46;;;;;;;27.60;15.20;;;3.90;86.50;;;3.55;79.57;98239.03;5068744;28;20638;-70
2021/01/17 10:05:14;;;;;;;25.93;15.03;;;3.90;86.20;;;3.53;79.72;98240.81;5064392;28;20652;-69
2021/01/17 10:07:41;;;;;;;24.87;15.30;;;4.00;86.30;;;3.57;80.50;98238.06;5070370;28;20727;-69
2021/01/17 10:10:10;;;;;;;27.33;16.00;;;4.00;86.70;;;3.56;80.04;98241.53;5055036;28;20871;-69
2021/01/17 10:12:39;;;;;;;26.83;16.30;;;4.00;86.40;;;3.59;79.97;98241.41;5057947;28;21151;-69
2021/01/17 10:15:16;;;;;;;31.33;16.40;;;4.00;86.50;;;3.63;80.00;98252.47;5064854;28;21148;-69
2021/01/17 10:17:45;;;;;;;27.87;16.30;;;4.00;87.30;;;3.64;80.16;98249.84;5073834;28;20665;-70
2021/01/17 10:20:23;;;;;;;24.47;14.63;;;4.00;86.80;;;3.66;80.12;98260.91;5061226;28;20608;-70
2021/01/17 10:22:57;;;;;;;25.00;15.50;;;4.00;87.10;;;3.65;80.25;98241.19;5054506;28;20648;-70
2021/01/17 10:25:25;;;;;;;24.40;15.10;;;4.10;86.80;;;3.64;80.02;98244.69;5072660;28;20674;-70
2021/01/17 10:28:00;;;;;;;26.83;15.87;;;4.00;86.60;;;3.66;79.64;98244.63;5071361;28;20997;-70
2021/01/17 10:30:30;;;;;;;25.10;15.73;;;4.00;86.10;;;3.69;80.34;98247.91;5073132;28;21215;-70
2021/01/17 10:33:03;;;;;;;29.83;18.30;;;4.10;86.50;;;3.72;80.28;98247.78;5061496;28;20678;-71
2021/01/17 10:35:33;;;;;;;28.40;15.30;;;4.10;87.00;;;3.73;80.76;98244.31;5071937;28;20607;-71
2021/01/17 10:38:05;;;;;;;24.50;14.77;;;4.10;86.60;;;3.74;80.55;98248.56;5059945;28;20650;-72
2021/01/17 10:40:34;;;;;;;26.87;16.30;;;4.10;86.50;;;3.69;80.22;98240.19;5073352;28;20626;-71